Time;durP1;ratioP1;P1;durP2;ratioP2;P2;SDS_P1;SDS_P2;PMS_P1;PMS_P2;Temp;Humidity;BMP_temperature;BMP_pressure;BME280_temperature;BME280_humidity;BME280_pressure;Samples;Min_cycle;Max_cycle;Signal;HPM_P1;HPM_P2
2021/03/19 00:02:20;283228.00;0.94;489.09;0.00;0.00;0.62;;;;;11.90;1.00;;;;;;2266121;61;1049;-86
2021/03/19 00:04:46;145698.00;0.49;252.39;0.00;0.00;0.62;;;;;11.60;1.00;;;;;;2263665;61;1322;-85
2021/03/19 00:07:13;82858.00;0.28;143.97;0.00;0.00;0.62;;;;;11.90;1.00;;;;;;2267334;61;1044;-85
2021/03/19 00:09:39;208784.00;0.70;361.04;0.00;0.00;0.62;;;;;11.80;1.00;;;;;;2271900;61;1165;-85
2021/03/19 00:12:07;129190.00;0.43;223.93;0.00;0.00;0.62;;;;;11.80;1.00;;;;;;2271814;61;1041;-85
2021/03/19 00:14:34;267506.00;0.89;462.06;0.00;0.00;0.62;;;;;12.10;1.00;;;;;;2265748;61;1397;-85
2021/03/19 00:17:00;182347.00;0.61;315.53;0.00;0.00;0.62;;;;;12.20;1.00;;;;;;2267733;61;1922;-86
2021/03/19 00:19:27;254823.00;0.85;440.25;0.00;0.00;0.62;;;;;12.10;1.00;;;;;;2259644;61;1032;-86
2021/03/19 00:21:53;236435.00;0.79;408.62;0.00;0.00;0.62;;;;;12.00;1.00;;;;;;2248788;61;1018;-85
2021/03/19 00:24:20;167202.00;0.56;289.45;0.00;0.00;0.62;;;;;12.00;1.00;;;;;;2247634;61;1367;-85
2021/03/19 00:26:46;236950.00;0.79;409.50;0.00;0.00;0.62;;;;;12.20;1.00;;;;;;2247695;61;999;-86
2021/03/19 00:29:13;217616.00;0.73;376.24;0.00;0.00;0.62;;;;;12.10;1.00;;;;;;2247594;62;954;-86
2021/03/19 00:31:40;223573.00;0.75;386.49;0.00;0.00;0.62;;;;;12.10;1.00;;;;;;2247434;62;967;-87
2021/03/19 00:34:07;218561.00;0.73;377.87;0.00;0.00;0.62;;;;;12.10;1.00;;;;;;2236207;62;1351;-86
2021/03/19 00:36:33;235336.00;0.78;406.73;0.00;0.00;0.62;;;;;12.10;1.00;;;;;;2240455;62;1945;-86
2021/03/19 00:39:00;316874.00;1.06;546.92;0.00;0.00;0.62;;;;;11.50;1.00;;;;;;2248125;61;976;-84
2021/03/19 00:41:26;465899.00;1.55;803.13;4847.00;0.02;9.02;;;;;11.20;1.00;;;;;;2248792;61;1052;-84
2021/03/19 00:43:53;248920.00;0.83;430.09;0.00;0.00;0.62;;;;;10.80;1.00;;;;;;2247658;61;1008;-87
2021/03/19 00:46:20;266716.00;0.89;460.70;0.00;0.00;0.62;;;;;9.70;1.00;;;;;;2244410;61;1193;-87
2021/03/19 00:48:47;293235.00;0.98;506.29;0.00;0.00;0.62;;;;;9.50;1.00;;;;;;2244391;61;936;-86
2021/03/19 00:51:14;310709.00;1.04;536.33;0.00;0.00;0.62;;;;;9.20;1.00;;;;;;2248999;61;1032;-86
2021/03/19 00:53:40;267582.00;0.89;462.19;0.00;0.00;0.62;;;;;9.20;1.00;;;;;;2260532;61;1018;-87
2021/03/19 00:56:07;265871.00;0.89;459.24;0.00;0.00;0.62;;;;;9.30;1.00;;;;;;2267661;61;1972;-86
2021/03/19 00:58:33;134179.00;0.45;232.54;0.00;0.00;0.62;;;;;9.70;1.00;;;;;;2261060;61;966;-85
2021/03/19 01:01:00;266196.00;0.89;459.80;0.00;0.00;0.62;;;;;10.00;1.00;;;;;;2268529;61;1025;-84
2021/03/19 01:03:27;249007.00;0.83;430.24;0.00;0.00;0.62;;;;;10.40;1.00;;;;;;2265859;61;1098;-84
2021/03/19 01:05:54;356655.00;1.19;615.30;25471.00;0.08;44.74;;;;;10.60;1.00;;;;;;2268824;61;1462;-85
2021/03/19 01:08:20;202284.00;0.67;349.86;0.00;0.00;0.62;;;;;10.50;1.00;;;;;;2269193;61;1025;-85
2021/03/19 01:10:50;310785.00;1.04;536.46;0.00;0.00;0.62;;;;;10.60;1.00;;;;;;2276281;61;1187;-85
2021/03/19 01:13:20;241212.00;0.80;416.84;0.00;0.00;0.62;;;;;10.70;1.00;;;;;;2276153;61;969;-86
2021/03/19 01:15:46;74174.00;0.25;128.97;0.00;0.00;0.62;;;;;10.70;1.00;;;;;;2269189;61;1908;-85
2021/03/19 01:18:16;33621.00;0.11;58.85;0.00;0.00;0.62;;;;;10.60;1.00;;;;;;2269147;61;1040;-85
2021/03/19 01:20:45;74735.00;0.25;129.94;0.00;0.00;0.62;;;;;10.70;1.00;;;;;;2265715;61;1001;-85
2021/03/19 01:23:12;68187.00;0.23;118.63;0.00;0.00;0.62;;;;;10.80;1.00;;;;;;2267502;61;1173;-85
2021/03/19 01:25:40;58716.00;0.20;102.26;0.00;0.00;0.62;;;;;10.80;1.00;;;;;;2263390;61;1365;-85
2021/03/19 01:28:06;280447.00;0.93;484.31;0.00;0.00;0.62;;;;;10.80;1.00;;;;;;2263668;61;1148;-85
2021/03/19 01:30:35;180846.00;0.60;312.95;0.00;0.00;0.62;;;;;11.30;1.00;;;;;;2263406;61;1149;-85
2021/03/19 01:33:02;75103.00;0.25;130.58;0.00;0.00;0.62;;;;;11.00;1.00;;;;;;2259423;61;1243;-85
2021/03/19 01:35:31;189612.00;0.63;328.04;0.00;0.00;0.62;;;;;11.20;1.00;;;;;;2252787;61;1914;-85
2021/03/19 01:37:59;98623.00;0.33;171.19;0.00;0.00;0.62;;;;;10.90;1.00;;;;;;2259413;61;1082;-85
2021/03/19 01:40:30;176166.00;0.59;304.89;0.00;0.00;0.62;;;;;10.80;1.00;;;;;;2252709;61;990;-85
2021/03/19 01:43:02;48098.00;0.16;83.90;0.00;0.00;0.62;;;;;10.90;1.00;;;;;;2250881;61;1173;-85
2021/03/19 01:46:16;412306.00;1.37;710.96;103615.00;0.35;179.81;;;;;11.30;1.00;;;;;;2264001;61;1389;-85
2021/03/19 01:49:20;45218.00;0.15;78.92;0.00;0.00;0.62;;;;;11.50;1.00;;;;;;2260690;61;991;-86
2021/03/19 01:52:23;142933.00;0.48;247.63;0.00;0.00;0.62;;;;;11.50;1.00;;;;;;2263986;61;975;-85
2021/03/19 01:55:23;69576.00;0.23;121.03;0.00;0.00;0.62;;;;;11.60;1.00;;;;;;2261389;61;1448;-85
2021/03/19 01:58:42;0.00;0.00;0.62;0.00;0.00;0.62;;;;;11.20;1.00;;;;;;2269930;61;2150;-86
2021/03/19 02:01:46;0.00;0.00;0.62;0.00;0.00;0.62;;;;;11.50;1.00;;;;;;2259690;61;1161;-86
2021/03/19 02:08:13;9371.00;0.03;16.86;0.00;0.00;0.62;;;;;11.90;1.00;;;;;;2259978;61;696;-86
2021/03/19 02:21:20;76795.00;0.26;133.50;0.00;0.00;0.62;;;;;12.20;1.00;;;;;;2260019;61;734;-86
2021/03/19 02:24:23;0.00;0.00;0.62;0.00;0.00;0.62;;;;;12.00;1.00;;;;;;2250137;61;1103;-86
2021/03/19 02:27:26;16192.00;0.05;28.68;0.00;0.00;0.62;;;;;12.30;1.00;;;;;;2259870;61;986;-86
2021/03/19 02:30:29;0.00;0.00;0.62;0.00;0.00;0.62;;;;;12.50;1.00;;;;;;2249930;61;1107;-86
2021/03/19 02:32:57;0.00;0.00;0.62;0.00;0.00;0.62;;;;;12.50;1.00;;;;;;2264670;61;1158;-87
2021/03/19 02:35:24;19735.00;0.07;34.81;0.00;0.00;0.62;;;;;12.50;1.00;;;;;;2269321;61;1402;-86
2021/03/19 02:37:51;0.00;0.00;0.62;0.00;0.00;0.62;;;;;12.50;1.00;;;;;;2269394;61;2015;-86
2021/03/19 02:40:20;59394.00;0.20;103.43;0.00;0.00;0.62;;;;;12.60;1.00;;;;;;2266006;61;1081;-86
2021/03/19 02:42:47;41660.00;0.14;72.76;0.00;0.00;0.62;;;;;12.40;1.00;;;;;;2269216;61;960;-86
2021/03/19 02:45:17;0.00;0.00;0.62;0.00;0.00;0.62;;;;;12.50;1.00;;;;;;2269344;61;1287;-86
2021/03/19 02:47:46;0.00;0.00;0.62;0.00;0.00;0.62;;;;;12.40;1.00;;;;;;2276179;61;1136;-86
2021/03/19 02:50:15;0.00;0.00;0.62;0.00;0.00;0.62;;;;;12.30;1.00;;;;;;2276383;61;926;-86
2021/03/19 02:52:44;0.00;0.00;0.62;0.00;0.00;0.62;;;;;12.00;1.00;;;;;;2275841;61;1160;-86
2021/03/19 02:55:14;73390.00;0.24;127.62;0.00;0.00;0.62;;;;;12.20;1.00;;;;;;2266047;61;1349;-87
2021/03/19 02:57:40;8717.00;0.03;15.73;0.00;0.00;0.62;;;;;12.20;1.00;;;;;;2276637;61;2009;-87
2021/03/19 03:00:10;0.00;0.00;0.62;0.00;0.00;0.62;;;;;11.90;1.00;;;;;;2276639;61;981;-87
2021/03/19 03:02:36;0.00;0.00;0.62;0.00;0.00;0.62;;;;;12.00;1.00;;;;;;2272889;61;1016;-86
2021/03/19 03:05:03;0.00;0.00;0.62;0.00;0.00;0.62;;;;;12.10;1.00;;;;;;2267967;61;1338;-86
2021/03/19 03:07:32;9267.00;0.03;16.68;0.00;0.00;0.62;;;;;11.80;1.00;;;;;;2264693;61;1035;-88
2021/03/19 03:10:00;32873.00;0.11;57.56;0.00;0.00;0.62;;;;;11.70;1.00;;;;;;2267953;61;963;-86
2021/03/19 03:12:28;39141.00;0.13;68.40;0.00;0.00;0.62;;;;;11.80;1.00;;;;;;2267978;61;1122;-86
2021/03/19 03:14:55;222963.00;0.74;385.44;39557.00;0.13;69.12;;;;;11.90;1.00;;;;;;2268018;61;1445;-86
2021/03/19 03:17:22;21858.00;0.07;38.49;0.00;0.00;0.62;;;;;11.50;1.00;;;;;;2267965;61;2009;-87
2021/03/19 03:19:48;0.00;0.00;0.62;0.00;0.00;0.62;;;;;11.40;1.00;;;;;;2268049;61;1107;-86
2021/03/19 03:22:15;0.00;0.00;0.62;0.00;0.00;0.62;;;;;11.50;1.00;;;;;;2269218;61;1149;-87
2021/03/19 03:24:42;0.00;0.00;0.62;0.00;0.00;0.62;;;;;11.70;1.00;;;;;;2276528;61;1384;-87
2021/03/19 03:27:09;0.00;0.00;0.62;0.00;0.00;0.62;;;;;11.70;1.00;;;;;;2276459;61;1685;-86
2021/03/19 03:29:37;31157.00;0.10;54.59;0.00;0.00;0.62;;;;;11.70;1.00;;;;;;2276206;61;1131;-85
2021/03/19 03:32:05;68947.00;0.23;119.94;0.00;0.00;0.62;;;;;10.70;1.00;;;;;;2267638;61;1014;-86
2021/03/19 03:34:32;42764.00;0.14;74.67;0.00;0.00;0.62;;;;;9.70;1.00;;;;;;2265946;61;1312;-86
2021/03/19 03:37:00;15376.00;0.05;27.26;0.00;0.00;0.62;;;;;10.30;1.00;;;;;;2261194;61;1915;-85
2021/03/19 03:39:29;51202.00;0.17;89.26;0.00;0.00;0.62;;;;;10.10;1.00;;;;;;2267894;61;1223;-86
2021/03/19 03:41:59;0.00;0.00;0.62;0.00;0.00;0.62;;;;;10.10;1.00;;;;;;2261194;61;987;-85
2021/03/19 03:44:27;8006.00;0.03;14.49;0.00;0.00;0.62;;;;;10.50;1.00;;;;;;2267875;61;1410;-83
2021/03/19 03:46:55;0.00;0.00;0.62;0.00;0.00;0.62;;;;;10.60;1.00;;;;;;2267857;61;1095;-83
2021/03/19 03:49:24;58454.00;0.19;101.80;0.00;0.00;0.62;;;;;10.60;1.00;;;;;;2261298;61;997;-83
2021/03/19 03:51:51;0.00;0.00;0.62;0.00;0.00;0.62;;;;;10.70;1.00;;;;;;2263727;61;1113;-84
2021/03/19 03:54:18;199305.00;0.66;344.73;27032.00;0.09;47.45;;;;;10.80;1.00;;;;;;2251621;61;1412;-84
2021/03/19 03:56:46;0.00;0.00;0.62;0.00;0.00;0.62;;;;;10.70;1.00;;;;;;2248203;61;1944;-83
2021/03/19 03:59:13;30185.00;0.10;52.90;0.00;0.00;0.62;;;;;10.80;1.00;;;;;;2245257;61;1038;-84
2021/03/19 04:01:41;108985.00;0.36;189.08;0.00;0.00;0.62;;;;;10.80;1.00;;;;;;2251834;61;1054;-84
2021/03/19 04:04:11;0.00;0.00;0.62;0.00;0.00;0.62;;;;;10.80;1.00;;;;;;2251442;61;1386;-84
2021/03/19 04:06:37;112654.00;0.38;195.41;25548.00;0.09;44.88;;;;;11.20;1.00;;;;;;2245143;61;978;-85
2021/03/19 04:09:04;0.00;0.00;0.62;0.00;0.00;0.62;;;;;11.40;1.00;;;;;;2252187;61;1020;-83
2021/03/19 04:11:32;55049.00;0.18;95.92;0.00;0.00;0.62;;;;;11.00;1.00;;;;;;2252955;61;1028;-85
2021/03/19 04:13:59;70868.00;0.24;123.26;0.00;0.00;0.62;;;;;11.00;1.00;;;;;;2259705;61;1238;-84
2021/03/19 04:16:27;99033.00;0.33;171.90;22936.00;0.08;40.35;;;;;11.00;1.00;;;;;;2253092;61;2003;-83
2021/03/19 04:18:54;0.00;0.00;0.62;0.00;0.00;0.62;;;;;11.00;1.00;;;;;;2253162;61;995;-85
2021/03/19 04:21:20;15217.00;0.05;26.99;0.00;0.00;0.62;;;;;11.00;1.00;;;;;;2253140;61;982;-84
2021/03/19 04:23:49;46604.00;0.16;81.31;0.00;0.00;0.62;;;;;11.00;1.00;;;;;;2257918;61;1006;-84
2021/03/19 04:26:25;19309.00;0.06;34.07;0.00;0.00;0.62;;;;;10.90;1.00;;;;;;2268361;61;1417;-83
2021/03/19 04:28:52;10127.00;0.03;18.17;0.00;0.00;0.62;;;;;10.70;1.00;;;;;;2272726;61;1053;-83
2021/03/19 04:31:19;282144.00;0.94;487.22;78034.00;0.26;135.64;;;;;10.60;1.00;;;;;;2265889;61;1007;-83
2021/03/19 04:36:52;25061.00;0.08;44.03;0.00;0.00;0.62;;;;;10.00;1.00;;;;;;2276857;61;1923;-84
2021/03/19 04:39:22;239928.00;0.80;414.63;43669.00;0.15;76.24;;;;;10.20;1.00;;;;;;2273519;61;1347;-84
2021/03/19 04:41:52;9544.00;0.03;17.16;0.00;0.00;0.62;;;;;10.30;1.00;;;;;;2271735;61;1058;-86
2021/03/19 04:44:19;244929.00;0.82;423.23;102826.00;0.34;178.45;;;;;9.70;1.00;;;;;;2267639;61;1380;-83
2021/03/19 04:46:46;11788.00;0.04;21.05;0.00;0.00;0.62;;;;;9.90;1.00;;;;;;2263645;61;1065;-85
2021/03/19 04:49:12;16962.00;0.06;30.01;0.00;0.00;0.62;;;;;10.20;1.00;;;;;;2253758;61;1017;-83
2021/03/19 04:51:39;0.00;0.00;0.62;0.00;0.00;0.62;;;;;10.60;1.00;;;;;;2259558;61;1052;-83
2021/03/19 04:54:08;0.00;0.00;0.62;0.00;0.00;0.62;;;;;10.20;1.00;;;;;;2252957;61;1342;-85
2021/03/19 04:56:35;0.00;0.00;0.62;0.00;0.00;0.62;;;;;10.50;1.00;;;;;;2259545;61;2003;-82
2021/03/19 04:59:02;0.00;0.00;0.62;0.00;0.00;0.62;;;;;10.60;1.00;;;;;;2259642;61;958;-85
2021/03/19 05:01:29;60258.00;0.20;104.92;0.00;0.00;0.62;;;;;10.50;1.00;;;;;;2260662;61;1676;-86
2021/03/19 05:03:55;10319.00;0.03;18.50;0.00;0.00;0.62;;;;;10.10;1.00;;;;;;2268017;61;1402;-89
2021/03/19 05:06:22;42417.00;0.14;74.07;0.00;0.00;0.62;;;;;10.10;1.00;;;;;;2271182;61;1030;-88
2021/03/19 05:08:49;102389.00;0.34;177.70;0.00;0.00;0.62;;;;;10.30;1.00;;;;;;2262197;61;973;-87
2021/03/19 05:11:17;19950.00;0.07;35.18;0.00;0.00;0.62;;;;;10.50;1.00;;;;;;2269059;61;974;-87
2021/03/19 05:13:45;24566.00;0.08;43.18;0.00;0.00;0.62;;;;;10.50;1.00;;;;;;2275795;61;1041;-88
2021/03/19 05:16:11;160074.00;0.53;277.17;0.00;0.00;0.62;;;;;10.50;1.00;;;;;;2275948;61;1911;-87
2021/03/19 05:18:38;143360.00;0.48;248.36;0.00;0.00;0.62;;;;;10.40;1.00;;;;;;2268294;61;1054;-87
2021/03/19 05:21:05;38494.00;0.13;67.28;0.00;0.00;0.62;;;;;9.60;1.00;;;;;;2260213;61;1006;-87
2021/03/19 05:23:36;95423.00;0.32;165.67;0.00;0.00;0.62;;;;;9.70;1.00;;;;;;2260285;61;1070;-87
2021/03/19 05:26:06;31652.00;0.11;55.44;0.00;0.00;0.62;;;;;10.30;1.00;;;;;;2260178;61;1398;-87
2021/03/19 05:28:34;0.00;0.00;0.62;0.00;0.00;0.62;;;;;10.60;1.00;;;;;;2253652;61;992;-89
2021/03/19 05:31:02;35066.00;0.12;61.35;0.00;0.00;0.62;;;;;10.50;1.00;;;;;;2250409;61;1149;-86
2021/03/19 05:33:43;157309.00;0.52;272.40;75.00;0.00;0.75;;;;;10.50;1.00;;;;;;2248155;62;1067;-89
2021/03/19 05:36:12;85550.00;0.29;148.62;0.00;0.00;0.62;;;;;9.90;1.00;;;;;;2243598;61;1997;-88
2021/03/19 05:38:38;172661.00;0.58;298.85;0.00;0.00;0.62;;;;;9.60;1.00;;;;;;2253349;61;1031;-89
2021/03/19 05:41:06;361516.00;1.21;623.65;61171.00;0.20;106.50;;;;;9.10;1.00;;;;;;2255692;61;1020;-89
2021/03/19 05:43:37;31048.00;0.10;54.40;0.00;0.00;0.62;;;;;8.70;1.00;;;;;;2248150;61;999;-88
2021/03/19 05:46:08;91371.00;0.30;158.67;0.00;0.00;0.62;;;;;8.80;1.00;;;;;;2248275;61;1347;-88
2021/03/19 05:48:45;236379.00;0.79;408.52;0.00;0.00;0.62;;;;;9.00;1.00;;;;;;2244263;61;995;-87
2021/03/19 05:51:30;126179.00;0.42;218.74;0.00;0.00;0.62;;;;;8.80;1.00;;;;;;2239220;61;1025;-87
2021/03/19 05:53:59;185732.00;0.62;321.36;0.00;0.00;0.62;;;;;8.10;1.00;;;;;;2251432;61;1467;-89
2021/03/19 05:56:29;266551.00;0.89;460.41;12952.00;0.04;23.06;;;;;7.40;1.00;;;;;;2256199;61;1924;-89
2021/03/19 05:58:59;119893.00;0.40;207.90;0.00;0.00;0.62;;;;;7.60;1.00;;;;;;2257874;61;1100;-88
2021/03/19 06:01:26;1789.00;0.01;3.72;0.00;0.00;0.62;;;;;8.90;1.00;;;;;;2263271;61;1071;-87
2021/03/19 06:03:56;33037.00;0.11;57.84;0.00;0.00;0.62;;;;;9.50;1.00;;;;;;2264091;61;1019;-89
2021/03/19 06:06:23;167267.00;0.56;289.56;0.00;0.00;0.62;;;;;9.00;1.00;;;;;;2265425;61;1791;-88
2021/03/19 06:08:50;238536.00;0.80;412.23;80512.00;0.27;139.92;;;;;9.00;1.00;;;;;;2268240;61;1043;-89
2021/03/19 06:11:21;252646.00;0.84;436.50;105217.00;0.35;182.58;;;;;9.30;1.00;;;;;;2268140;61;1545;-91
2021/03/19 06:13:57;295041.00;0.98;509.40;88364.00;0.29;153.48;;;;;9.40;1.00;;;;;;2268236;61;1037;-87
2021/03/19 06:16:44;321607.00;1.07;555.06;0.00;0.00;0.62;;;;;8.80;1.00;;;;;;2268036;61;1919;-90
2021/03/19 06:19:33;108705.00;0.36;188.60;0.00;0.00;0.62;;;;;8.50;1.00;;;;;;2268208;61;1070;-89
2021/03/19 06:22:26;184488.00;0.61;319.22;77194.00;0.26;134.19;;;;;8.30;1.00;;;;;;2268215;61;917;-90
2021/03/19 06:24:57;704257.00;2.35;1214.62;115322.00;0.38;200.01;;;;;8.90;1.00;;;;;;2268166;61;1404;-89
2021/03/19 06:27:26;672630.00;2.24;1159.81;103564.00;0.35;179.72;;;;;9.20;1.00;;;;;;2268789;61;1131;-87
2021/03/19 06:29:57;341224.00;1.14;588.78;100001.00;0.33;173.57;;;;;9.90;1.00;;;;;;2268037;61;983;-88
2021/03/19 06:32:28;35587.00;0.12;62.25;0.00;0.00;0.62;;;;;10.50;1.00;;;;;;2268214;61;1021;-85
2021/03/19 06:35:16;190882.00;0.64;330.23;77272.00;0.26;134.32;;;;;11.00;1.00;;;;;;2260009;61;1285;-86
2021/03/19 06:37:47;439505.00;1.47;757.73;102059.00;0.34;177.13;;;;;11.00;1.00;;;;;;2251944;61;2001;-88
2021/03/19 06:40:33;125497.00;0.42;217.56;18022.00;0.06;31.84;;;;;11.00;1.00;;;;;;2251829;61;974;-87
2021/03/19 06:43:17;317365.00;1.06;547.77;75180.00;0.25;130.71;;;;;11.00;1.00;;;;;;2251782;61;1691;-86
2021/03/19 06:45:51;318879.00;1.06;550.37;76539.00;0.26;133.06;;;;;11.30;1.00;;;;;;2255597;61;1864;-86
2021/03/19 06:48:32;258039.00;0.86;445.78;0.00;0.00;0.62;;;;;10.90;1.00;;;;;;2258719;61;1008;-90
2021/03/19 06:50:59;168298.00;0.56;291.33;79736.00;0.27;138.58;;;;;10.50;1.00;;;;;;2260088;61;982;-89
2021/03/19 06:53:29;253729.00;0.85;438.36;76876.00;0.26;133.64;;;;;9.90;1.00;;;;;;2250795;61;1016;-87
2021/03/19 06:56:12;340663.00;1.14;587.81;79117.00;0.26;137.51;;;;;10.20;1.00;;;;;;2254311;61;1989;-91
2021/03/19 07:09:04;528845.00;1.76;911.50;0.00;0.00;0.62;;;;;9.30;1.00;;;;;;2278168;61;1219;-90
2021/03/19 07:11:59;86151.00;0.29;149.66;0.00;0.00;0.62;;;;;8.90;1.00;;;;;;2276421;61;1122;-89
2021/03/19 07:14:48;167232.00;0.56;289.50;0.00;0.00;0.62;;;;;9.00;1.00;;;;;;2263733;61;1430;-90
2021/03/19 07:17:30;92589.00;0.31;160.78;0.00;0.00;0.62;;;;;8.70;1.00;;;;;;2263872;61;1918;-89
2021/03/19 07:20:08;235484.00;0.78;406.98;0.00;0.00;0.62;;;;;8.60;1.00;;;;;;2263961;61;974;-90
2021/03/19 07:22:51;37603.00;0.13;65.74;0.00;0.00;0.62;;;;;8.80;1.00;;;;;;2263548;61;1093;-89
2021/03/19 07:25:38;45807.00;0.15;79.93;0.00;0.00;0.62;;;;;8.50;1.00;;;;;;2263448;61;1569;-90
2021/03/19 07:28:42;131033.00;0.44;227.11;0.00;0.00;0.62;;;;;9.10;1.00;;;;;;2263867;61;1104;-90
2021/03/19 07:31:34;122281.00;0.41;212.02;0.00;0.00;0.62;;;;;8.80;1.00;;;;;;2263357;61;1627;-89
2021/03/19 07:34:17;227789.00;0.76;393.74;0.00;0.00;0.62;;;;;9.20;1.00;;;;;;2276446;61;1438;-88
2021/03/19 07:36:58;96040.00;0.32;166.74;0.00;0.00;0.62;;;;;9.00;1.00;;;;;;2275969;61;2017;-90
2021/03/19 07:39:49;272503.00;0.91;470.65;13570.00;0.05;24.13;;;;;8.90;1.00;;;;;;2275885;61;1108;-89
2021/03/19 07:42:37;165422.00;0.55;286.38;0.00;0.00;0.62;;;;;8.60;1.00;;;;;;2276414;61;1674;-91
2021/03/19 07:45:16;2656.00;0.01;5.22;0.00;0.00;0.62;;;;;8.70;1.00;;;;;;2276384;61;1434;-89
2021/03/19 07:48:15;7165.00;0.02;13.04;0.00;0.00;0.62;;;;;8.10;1.00;;;;;;2275890;61;1039;-91
2021/03/19 07:50:51;198943.00;0.66;344.10;0.00;0.00;0.62;;;;;8.40;1.00;;;;;;2259821;61;961;-90
2021/03/19 07:53:53;11807.00;0.04;21.08;0.00;0.00;0.62;;;;;8.70;1.00;;;;;;2259767;61;1124;-90
2021/03/19 07:56:37;128971.00;0.43;223.55;0.00;0.00;0.62;;;;;9.10;1.00;;;;;;2259678;61;1997;-88
2021/03/19 07:59:23;93030.00;0.31;161.54;0.00;0.00;0.62;;;;;9.40;1.00;;;;;;2259614;61;1721;-89
2021/03/19 08:02:00;303333.00;1.01;523.65;83644.00;0.28;145.33;;;;;9.80;1.00;;;;;;2255776;61;1000;-89
2021/03/19 08:04:38;32314.00;0.11;56.59;0.00;0.00;0.62;;;;;10.10;1.00;;;;;;2255826;61;1391;-88
2021/03/19 08:07:21;165772.00;0.55;286.98;0.00;0.00;0.62;;;;;9.70;1.00;;;;;;2247786;61;1026;-89
2021/03/19 08:09:58;134831.00;0.45;233.66;0.00;0.00;0.62;;;;;9.70;1.00;;;;;;2247854;61;1004;-88
2021/03/19 08:12:29;76101.00;0.25;132.30;0.00;0.00;0.62;;;;;9.80;1.00;;;;;;2247788;61;1781;-89
2021/03/19 08:15:14;14470.00;0.05;25.69;0.00;0.00;0.62;;;;;10.60;1.00;;;;;;2247797;61;1349;-88
2021/03/19 08:17:54;55020.00;0.18;95.87;0.00;0.00;0.62;;;;;11.20;1.00;;;;;;2247773;61;1991;-88
2021/03/19 08:20:55;461327.00;1.54;795.27;102204.00;0.34;177.38;;;;;11.80;1.00;;;;;;2239787;62;983;-89
2021/03/19 08:23:33;78716.00;0.26;136.82;0.00;0.00;0.62;;;;;11.00;1.00;;;;;;2224185;62;1016;-88
2021/03/19 08:26:00;21717.00;0.07;38.24;0.00;0.00;0.62;;;;;10.40;1.00;;;;;;2224220;62;1330;-88
2021/03/19 08:28:36;69009.00;0.23;120.05;0.00;0.00;0.62;;;;;10.00;1.00;;;;;;2234947;62;1017;-88
2021/03/19 08:31:18;141532.00;0.47;245.21;0.00;0.00;0.62;;;;;9.90;1.00;;;;;;2235926;62;1007;-91
2021/03/19 08:33:55;65603.00;0.22;114.16;0.00;0.00;0.62;;;;;9.70;1.00;;;;;;2232541;62;1031;-87
2021/03/19 08:36:33;0.00;0.00;0.62;0.00;0.00;0.62;;;;;10.00;1.00;;;;;;2245254;62;1912;-89
2021/03/19 08:39:05;0.00;0.00;0.62;0.00;0.00;0.62;;;;;9.70;1.00;;;;;;2245925;61;990;-87
2021/03/19 08:41:42;162527.00;0.54;281.39;0.00;0.00;0.62;;;;;9.80;1.00;;;;;;2241107;62;976;-88
2021/03/19 08:44:13;115364.00;0.38;200.08;0.00;0.00;0.62;;;;;9.80;1.00;;;;;;2239665;62;1314;-90
2021/03/19 08:46:48;19344.00;0.06;34.13;0.00;0.00;0.62;;;;;9.70;1.00;;;;;;2239557;62;1799;-90
2021/03/19 08:49:31;10206.00;0.03;18.31;0.00;0.00;0.62;;;;;9.10;1.00;;;;;;2231950;62;972;-92
2021/03/19 08:51:58;392676.00;1.31;677.21;73558.00;0.25;127.91;;;;;9.10;1.00;;;;;;2232467;62;1062;-90
2021/03/19 08:54:27;106945.00;0.36;185.56;0.00;0.00;0.62;;;;;8.60;1.00;;;;;;2228624;62;1304;-91
2021/03/19 08:56:56;100070.00;0.33;173.69;0.00;0.00;0.62;;;;;8.30;1.00;;;;;;2232272;62;2005;-89
2021/03/19 08:59:47;72055.00;0.24;125.31;0.00;0.00;0.62;;;;;8.30;1.00;;;;;;2238241;61;982;-91
2021/03/19 09:02:45;78964.00;0.26;137.25;0.00;0.00;0.62;;;;;8.40;1.00;;;;;;2244354;62;1033;-91
2021/03/19 09:05:21;238768.00;0.80;412.63;18122.00;0.06;32.02;;;;;8.80;1.00;;;;;;2236491;62;1434;-91
2021/03/19 09:08:21;54033.00;0.18;94.16;0.00;0.00;0.62;;;;;9.40;1.00;;;;;;2232559;62;994;-91
2021/03/19 09:11:12;325907.00;1.09;562.45;84141.00;0.28;146.19;;;;;9.70;1.00;;;;;;2243689;62;1120;-90
2021/03/19 09:13:59;70412.00;0.23;122.47;0.00;0.00;0.62;;;;;9.10;1.00;;;;;;2228731;62;961;-90
2021/03/19 09:16:59;181797.00;0.61;314.58;74201.00;0.25;129.02;;;;;9.30;1.00;;;;;;2229261;62;1998;-90
2021/03/19 09:20:01;127285.00;0.42;220.65;0.00;0.00;0.62;;;;;9.30;1.00;;;;;;2236533;62;1039;-88
2021/03/19 09:22:41;252529.00;0.84;436.30;0.00;0.00;0.62;;;;;9.50;1.00;;;;;;2238473;62;1286;-88
2021/03/19 09:25:46;224563.00;0.75;388.19;0.00;0.00;0.62;;;;;9.60;1.00;;;;;;2241767;62;1472;-91
2021/03/19 09:28:38;18287.00;0.06;32.30;0.00;0.00;0.62;;;;;8.90;1.00;;;;;;2236443;62;939;-91
2021/03/19 09:31:36;120070.00;0.40;208.20;0.00;0.00;0.62;;;;;8.40;1.00;;;;;;2239332;62;1587;-91
2021/03/19 09:34:19;0.00;0.00;0.62;0.00;0.00;0.62;;;;;8.80;1.00;;;;;;2238493;62;1335;-87
2021/03/19 09:37:06;168619.00;0.56;291.89;0.00;0.00;0.62;;;;;9.20;1.00;;;;;;2248267;62;1997;-88
2021/03/19 09:40:12;33595.00;0.11;58.81;0.00;0.00;0.62;;;;;8.40;1.00;;;;;;2260591;61;1109;-90
2021/03/19 09:42:56;14500.00;0.05;25.74;0.00;0.00;0.62;;;;;8.20;1.00;;;;;;2264140;61;1026;-88
2021/03/19 09:45:30;4521.00;0.02;8.46;0.00;0.00;0.62;;;;;7.60;1.00;;;;;;2265585;61;1449;-88
2021/03/19 09:48:22;103807.00;0.35;180.14;12760.00;0.04;22.73;;;;;7.50;1.00;;;;;;2268113;61;995;-90
2021/03/19 09:50:54;118508.00;0.40;205.51;0.00;0.00;0.62;;;;;8.00;1.00;;;;;;2267675;61;1071;-88
2021/03/19 09:53:29;6485.00;0.02;11.86;0.00;0.00;0.62;;;;;9.00;1.00;;;;;;2264110;61;996;-89
2021/03/19 09:55:58;208419.00;0.69;360.41;0.00;0.00;0.62;;;;;9.50;1.00;;;;;;2264209;61;1486;-89
2021/03/19 09:58:36;39033.00;0.13;68.22;0.00;0.00;0.62;;;;;9.30;1.00;;;;;;2264255;61;2011;-88
2021/03/19 10:01:11;38896.00;0.13;67.98;0.00;0.00;0.62;;;;;9.30;1.00;;;;;;2264034;61;1182;-88
2021/03/19 10:03:43;90254.00;0.30;156.75;0.00;0.00;0.62;;;;;8.60;1.00;;;;;;2260663;61;983;-89
2021/03/19 10:06:23;127646.00;0.43;221.27;0.00;0.00;0.62;;;;;7.90;1.00;;;;;;2264697;61;1280;-90
2021/03/19 10:08:51;82005.00;0.27;142.50;0.00;0.00;0.62;;;;;7.60;1.00;;;;;;2268123;61;1076;-88
2021/03/19 10:11:19;174423.00;0.58;301.88;0.00;0.00;0.62;;;;;7.50;1.00;;;;;;2268211;61;1015;-90
2021/03/19 10:13:46;290477.00;0.97;501.55;0.00;0.00;0.62;;;;;6.70;1.00;;;;;;2260188;61;988;-88
2021/03/19 10:16:22;56244.00;0.19;97.98;0.00;0.00;0.62;;;;;6.30;1.00;;;;;;2260263;61;1470;-88
2021/03/19 10:18:50;129832.00;0.43;225.04;0.00;0.00;0.62;;;;;6.00;1.00;;;;;;2248070;61;1007;-88
2021/03/19 10:21:20;152242.00;0.51;263.67;0.00;0.00;0.62;;;;;5.80;1.00;;;;;;2240305;62;1011;-90
2021/03/19 10:23:56;391101.00;1.30;674.51;48258.00;0.16;84.17;;;;;5.70;1.00;;;;;;2242898;61;983;-88
2021/03/19 10:26:27;206194.00;0.69;356.58;0.00;0.00;0.62;;;;;5.60;1.00;;;;;;2244933;62;1023;-88
2021/03/19 10:29:06;22158.00;0.07;39.01;0.00;0.00;0.62;;;;;5.60;1.00;;;;;;2248101;62;944;-88
2021/03/19 10:31:41;64847.00;0.22;112.86;0.00;0.00;0.62;;;;;5.80;1.00;;;;;;2248882;61;1038;-87
2021/03/19 10:34:23;222621.00;0.74;384.85;0.00;0.00;0.62;;;;;5.60;1.00;;;;;;2255919;61;1408;-88
2021/03/19 10:36:56;171541.00;0.57;296.92;0.00;0.00;0.62;;;;;5.80;1.00;;;;;;2253880;61;2002;-89
2021/03/19 10:39:32;61832.00;0.21;107.64;0.00;0.00;0.62;;;;;5.50;1.00;;;;;;2254063;61;979;-88
2021/03/19 10:42:13;91780.00;0.31;159.38;0.00;0.00;0.62;;;;;5.50;1.00;;;;;;2256096;61;1030;-87
2021/03/19 10:44:47;482785.00;1.61;832.19;133841.00;0.45;231.95;;;;;5.50;1.00;;;;;;2255996;61;1293;-88
2021/03/19 10:47:25;0.00;0.00;0.62;0.00;0.00;0.62;;;;;5.30;1.00;;;;;;2258513;61;1038;-87
2021/03/19 10:49:57;152392.00;0.51;263.93;0.00;0.00;0.62;;;;;5.70;1.00;;;;;;2251898;61;963;-86
2021/03/19 10:52:31;259972.00;0.87;449.10;0.00;0.00;0.62;;;;;5.40;1.00;;;;;;2247968;61;947;-88
2021/03/19 10:55:10;87012.00;0.29;151.15;0.00;0.00;0.62;;;;;5.60;1.00;;;;;;2240076;62;1336;-88
2021/03/19 13:13:24;306379.00;1.02;528.89;0.00;0.00;0.62;;;;;5.60;1.00;;;;;;2274088;61;927;-87
2021/03/19 13:23:14;195541.00;0.65;338.25;0.00;0.00;0.62;;;;;5.30;1.00;;;;;;2278494;61;1279;-86
2021/03/19 13:30:40;286097.00;0.95;494.02;0.00;0.00;0.62;;;;;5.80;1.00;;;;;;2273660;61;1555;-85
2021/03/19 13:35:37;205924.00;0.69;356.12;0.00;0.00;0.62;;;;;6.50;1.00;;;;;;2273640;61;1426;-84
2021/03/19 13:45:29;310542.00;1.04;536.04;0.00;0.00;0.62;;;;;5.80;1.00;;;;;;2381374;39;3593;31